createdAt,value
2019-02-24T00:01:42.184Z,103870.66
2019-02-24T00:04:27.083Z,103867.09
2019-02-24T00:07:11.046Z,103896.39
2019-02-24T00:09:43.729Z,103897.13
2019-02-24T00:12:28.084Z,103880.98
2019-02-24T00:15:12.919Z,103881.02
2019-02-24T00:17:56.473Z,103892.30
2019-02-24T00:20:40.813Z,103889.14
2019-02-24T00:23:25.069Z,103913.78
2019-02-24T00:26:09.473Z,103883.87
2019-02-24T00:28:57.170Z,103909.10
2019-02-24T00:31:54.677Z,103908.97
2019-02-24T00:34:39.181Z,103918.97
2019-02-24T00:37:23.772Z,103916.50
2019-02-24T00:39:56.822Z,103944.72
2019-02-24T00:42:40.853Z,103922.53
2019-02-24T00:45:24.615Z,103919.55
2019-02-24T00:48:08.471Z,103948.27
2019-02-24T00:50:52.425Z,103943.81
2019-02-24T00:53:37.409Z,103910.73
2019-02-24T00:56:22.886Z,103910.66
2019-02-24T00:59:07.533Z,103895.09
2019-02-24T01:01:51.900Z,103928.98
2019-02-24T01:04:38.191Z,103928.48
2019-02-24T01:07:22.890Z,103933.45
2019-02-24T01:10:08.784Z,103923.56
2019-02-24T01:12:52.490Z,103923.27
2019-02-24T01:15:38.628Z,103919.39
2019-02-24T01:18:22.250Z,103933.66
2019-02-24T01:21:05.769Z,103899.92
2019-02-24T01:23:50.859Z,103932.41
2019-02-24T01:26:34.969Z,103908.30
2019-02-24T01:29:19.195Z,103930.77
2019-02-24T01:32:02.667Z,103910.26
2019-02-24T01:34:46.491Z,103909.20
2019-02-24T01:37:30.688Z,103926.70
2019-02-24T01:40:14.647Z,103906.54
2019-02-24T01:42:58.117Z,103906.80
2019-02-24T01:45:42.170Z,103942.17
2019-02-24T01:48:26.050Z,103909.34
2019-02-24T01:51:09.760Z,103941.29
2019-02-24T01:53:54.090Z,103911.59
2019-02-24T01:56:38.729Z,103904.24
2019-02-24T01:59:22.440Z,103888.71
2019-02-24T02:02:06.134Z,103914.27
2019-02-24T02:04:50.002Z,103882.11
2019-02-24T02:07:34.754Z,103885.84
2019-02-24T02:10:18.637Z,103911.08
2019-02-24T02:12:51.086Z,103910.51
2019-02-24T02:15:35.328Z,103876.66
2019-02-24T02:18:19.468Z,103877.11
2019-02-24T02:21:03.880Z,103906.84
2019-02-24T02:23:47.807Z,103883.39
2019-02-24T02:26:31.634Z,103879.22
2019-02-24T02:29:15.402Z,103872.33
2019-02-24T02:31:59.819Z,103901.80
2019-02-24T02:34:43.586Z,103866.01
2019-02-24T02:37:28.465Z,103895.60
2019-02-24T02:40:12.547Z,103873.02
2019-02-24T02:42:56.451Z,103862.11
2019-02-24T02:45:40.644Z,103880.95
2019-02-24T02:48:26.638Z,103874.56
2019-02-24T02:51:10.084Z,103843.37
2019-02-24T02:53:55.485Z,103848.97
2019-02-24T02:56:40.202Z,103847.49
2019-02-24T02:59:24.426Z,103870.52
2019-02-24T03:02:08.334Z,103847.20
2019-02-24T03:04:52.253Z,103835.14
2019-02-24T03:07:56.026Z,103858.59
2019-02-24T03:10:40.828Z,103837.92
2019-02-24T03:13:24.312Z,103857.72
2019-02-24T03:16:08.163Z,103833.88
2019-02-24T03:18:51.989Z,103839.08
2019-02-24T03:21:36.756Z,103835.07
2019-02-24T03:24:20.211Z,103869.90
2019-02-24T03:27:04.416Z,103830.52
2019-02-24T03:29:48.670Z,103832.97
2019-02-24T03:32:33.774Z,103856.93
2019-02-24T03:35:18.196Z,103856.87
2019-02-24T03:38:01.871Z,103851.71
2019-02-24T03:40:46.222Z,103824.27
2019-02-24T03:43:31.997Z,103840.75
2019-02-24T03:46:16.193Z,103824.23
2019-02-24T03:49:01.016Z,103854.41
2019-02-24T03:51:45.242Z,103835.19
2019-02-24T03:54:29.015Z,103829.34
2019-02-24T03:57:12.918Z,103829.91
2019-02-24T03:59:57.032Z,103838.26
2019-02-24T04:02:42.742Z,103857.16
2019-02-24T04:05:26.436Z,103820.81
2019-02-24T04:08:09.807Z,103843.13
2019-02-24T04:10:54.272Z,103816.17
2019-02-24T04:13:37.980Z,103844.36
2019-02-24T04:16:22.353Z,103812.45
2019-02-24T04:19:07.027Z,103808.71
2019-02-24T04:21:50.420Z,103824.30
2019-02-24T04:24:34.525Z,103800.11
2019-02-24T04:27:18.090Z,103839.95
2019-02-24T04:30:02.164Z,103813.95
2019-02-24T04:32:47.687Z,103805.55
2019-02-24T04:35:31.468Z,103816.20
2019-02-24T04:38:20.226Z,103826.68
2019-02-24T04:41:04.349Z,103863.27
2019-02-24T04:43:49.643Z,103856.58
2019-02-24T04:46:35.455Z,103815.53
2019-02-24T04:49:19.894Z,103833.35
2019-02-24T04:52:04.167Z,103848.41
2019-02-24T04:54:47.978Z,103819.98
2019-02-24T04:57:32.508Z,103848.52
2019-02-24T05:00:17.042Z,103822.92
2019-02-24T05:03:01.884Z,103819.75
2019-02-24T05:05:46.367Z,103810.50
2019-02-24T05:08:29.852Z,103837.72
2019-02-24T05:11:13.824Z,103825.17
2019-02-24T05:13:58.147Z,103826.41
2019-02-24T05:16:30.958Z,103845.98
2019-02-24T05:19:14.599Z,103847.89
2019-02-24T05:21:58.188Z,103838.59
2019-02-24T05:24:42.561Z,103842.95
2019-02-24T05:27:26.362Z,103819.97
2019-02-24T05:30:10.137Z,103804.01
2019-02-24T05:32:54.700Z,103824.78
2019-02-24T05:35:38.983Z,103801.24
2019-02-24T05:38:23.088Z,103799.83
2019-02-24T05:41:08.721Z,103793.89
2019-02-24T05:43:52.685Z,103821.41
2019-02-24T05:46:37.525Z,103780.04
2019-02-24T05:49:21.337Z,103773.89
2019-02-24T05:52:05.908Z,103775.66
2019-02-24T05:54:51.777Z,103780.98
2019-02-24T05:57:36.291Z,103792.91
2019-02-24T06:00:20.128Z,103814.47
2019-02-24T06:03:04.218Z,103794.84
2019-02-24T06:05:49.971Z,103811.02
2019-02-24T06:08:34.547Z,103824.66
2019-02-24T06:11:18.767Z,103832.68
2019-02-24T06:14:02.584Z,103839.11
2019-02-24T06:16:47.288Z,103818.11
2019-02-24T06:19:33.385Z,103835.19
2019-02-24T06:22:17.754Z,103840.44
2019-02-24T06:25:01.863Z,103854.09
2019-02-24T06:27:46.010Z,103877.22
2019-02-24T06:30:30.859Z,103852.33
2019-02-24T06:33:03.797Z,103884.49
2019-02-24T06:35:49.324Z,103855.56
2019-02-24T06:38:35.385Z,103877.84
2019-02-24T06:41:20.900Z,103881.25
2019-02-24T06:44:04.418Z,103887.16
2019-02-24T06:46:48.895Z,103862.83
2019-02-24T06:49:33.257Z,103853.76
2019-02-24T06:52:20.840Z,103866.98
2019-02-24T06:55:05.171Z,103886.39
2019-02-24T06:57:49.209Z,103878.28
2019-02-24T07:00:33.257Z,103902.77
2019-02-24T07:03:18.408Z,103874.94
2019-02-24T07:06:06.419Z,103901.37
2019-02-24T07:08:52.369Z,103883.89
2019-02-24T07:11:38.880Z,103912.33
2019-02-24T07:14:23.327Z,103883.43
2019-02-24T07:17:07.383Z,103874.08
2019-02-24T07:19:40.573Z,103902.83
2019-02-24T07:22:24.470Z,103874.23
2019-02-24T07:25:08.207Z,103874.04
2019-02-24T07:27:55.956Z,103868.20
2019-02-24T07:30:39.899Z,103880.70
2019-02-24T07:33:23.616Z,103883.52
2019-02-24T07:36:09.316Z,103884.59
2019-02-24T07:38:54.774Z,103912.05
2019-02-24T07:41:39.241Z,103887.09
2019-02-24T07:47:09.280Z,103910.67
2019-02-24T07:49:53.105Z,103904.84
2019-02-24T07:52:38.843Z,103877.95
2019-02-24T07:55:23.566Z,103885.72
2019-02-24T07:58:07.513Z,103880.87
2019-02-24T08:00:51.896Z,103885.52
2019-02-24T08:03:35.985Z,103888.98
2019-02-24T08:06:20.077Z,103917.84
2019-02-24T08:09:04.393Z,103892.29
2019-02-24T08:11:49.593Z,103882.31
2019-02-24T08:14:36.023Z,103880.94
2019-02-24T08:17:21.461Z,103902.88
2019-02-24T08:20:06.794Z,103895.94
2019-02-24T08:22:51.060Z,103904.72
2019-02-24T08:25:34.652Z,103890.70
2019-02-24T08:28:19.136Z,103915.92
2019-02-24T08:31:03.654Z,103894.59
2019-02-24T08:33:47.878Z,103893.87
2019-02-24T08:36:32.720Z,103894.02
2019-02-24T08:39:18.732Z,103914.23
2019-02-24T08:42:03.654Z,103903.96
2019-02-24T08:44:47.577Z,103877.92
2019-02-24T08:47:32.130Z,103895.49
2019-02-24T08:50:17.856Z,103896.36
2019-02-24T08:53:03.092Z,103897.52
2019-02-24T08:55:35.293Z,103896.13
2019-02-24T08:58:19.054Z,103869.79
2019-02-24T09:01:03.188Z,103881.31
2019-02-24T09:03:35.805Z,103910.82
2019-02-24T09:06:20.841Z,103909.05
2019-02-24T09:09:04.926Z,103884.97
2019-02-24T09:11:50.649Z,103878.93
2019-02-24T09:14:36.358Z,103872.63
2019-02-24T09:17:20.710Z,103897.18
2019-02-24T09:20:07.016Z,103904.16
2019-02-24T09:22:50.654Z,103882.80
2019-02-24T09:25:36.446Z,103900.14
2019-02-24T09:28:25.644Z,103895.06
2019-02-24T09:31:09.569Z,103898.89
2019-02-24T09:33:54.150Z,103900.86
2019-02-24T09:36:38.026Z,103899.60
2019-02-24T09:39:21.596Z,103875.70
2019-02-24T09:42:06.345Z,103875.11
2019-02-24T09:44:52.199Z,103880.19
2019-02-24T09:47:46.030Z,103876.87
2019-02-24T09:50:22.688Z,103875.16
2019-02-24T09:53:06.684Z,103894.92
2019-02-24T09:55:50.506Z,103892.78
2019-02-24T09:58:35.185Z,103884.20
2019-02-24T10:01:19.091Z,103886.13
2019-02-24T10:04:03.758Z,103912.34
2019-02-24T10:06:47.754Z,103895.70
2019-02-24T10:09:33.635Z,103898.74
2019-02-24T10:12:17.891Z,103899.74
2019-02-24T10:15:02.525Z,103918.41
2019-02-24T10:17:49.367Z,103918.69
2019-02-24T10:20:34.148Z,103896.94
2019-02-24T10:23:18.762Z,103917.77
2019-02-24T10:26:03.795Z,103916.98
2019-02-24T10:28:48.343Z,103907.72
2019-02-24T10:31:32.671Z,103891.69
2019-02-24T10:34:16.688Z,103921.67
2019-02-24T10:37:01.351Z,103892.44
2019-02-24T10:39:33.826Z,103917.53
2019-02-24T10:42:18.545Z,103916.97
2019-02-24T10:45:03.864Z,103921.11
2019-02-24T10:47:49.099Z,103882.94
2019-02-24T10:50:33.361Z,103874.98
2019-02-24T10:53:17.827Z,103891.41
2019-02-24T10:55:50.659Z,103885.52
2019-02-24T10:58:41.014Z,103863.84
2019-02-24T11:01:29.584Z,103863.49
2019-02-24T11:04:13.666Z,103891.99
2019-02-24T11:06:58.772Z,103877.56
2019-02-24T11:09:43.035Z,103916.31
2019-02-24T11:12:26.796Z,103896.19
2019-02-24T11:15:10.725Z,103908.29
2019-02-24T11:17:54.818Z,103887.64
2019-02-24T11:20:27.415Z,103910.02
2019-02-24T11:23:12.427Z,103897.63
2019-02-24T11:25:56.522Z,103935.27
2019-02-24T11:28:41.520Z,103896.04
2019-02-24T11:31:25.725Z,103905.88
2019-02-24T11:34:10.437Z,103894.80
2019-02-24T11:36:54.519Z,103884.61
2019-02-24T11:39:40.025Z,103860.16
2019-02-24T11:42:24.777Z,103857.55
2019-02-24T11:45:09.454Z,103855.32
2019-02-24T11:47:54.203Z,103853.95
2019-02-24T11:50:38.819Z,103838.62
2019-02-24T11:53:22.845Z,103857.72
2019-02-24T11:56:07.449Z,103845.03
2019-02-24T11:58:52.648Z,103849.23
2019-02-24T12:01:36.697Z,103870.16
2019-02-24T12:04:21.349Z,103840.00
2019-02-24T12:07:06.308Z,103835.27
2019-02-24T12:09:53.377Z,103850.95
2019-02-24T12:12:37.541Z,103832.78
2019-02-24T12:15:22.098Z,103847.54
2019-02-24T12:18:06.128Z,103865.05
2019-02-24T12:20:53.123Z,103849.70
2019-02-24T12:23:38.833Z,103868.25
2019-02-24T12:26:11.396Z,103863.50
2019-02-24T12:28:55.013Z,103858.78
2019-02-24T12:31:38.781Z,103835.24
2019-02-24T12:34:25.967Z,103833.30
2019-02-24T12:37:12.448Z,103838.55
2019-02-24T12:39:57.218Z,103849.14
2019-02-24T12:42:41.490Z,103842.22
2019-02-24T12:45:26.218Z,103845.09
2019-02-24T12:48:11.041Z,103827.44
2019-02-24T12:50:55.291Z,103819.78
2019-02-24T12:53:39.682Z,103808.59
2019-02-24T12:56:24.091Z,103809.69
2019-02-24T12:59:08.732Z,103817.87
2019-02-24T13:01:52.959Z,103811.20
2019-02-24T13:04:37.076Z,103836.72
2019-02-24T13:07:22.189Z,103840.72
2019-02-24T13:10:06.641Z,103807.78
2019-02-24T13:12:53.225Z,103795.14
2019-02-24T13:15:39.049Z,103794.53
2019-02-24T13:18:24.762Z,103817.00
2019-02-24T13:21:10.678Z,103812.52
2019-02-24T13:23:55.107Z,103814.62
2019-02-24T13:26:39.750Z,103822.98
2019-02-24T13:29:23.844Z,103815.67
2019-02-24T13:32:14.667Z,103793.70
2019-02-24T13:34:53.795Z,103820.92
2019-02-24T13:37:37.966Z,103818.66
2019-02-24T13:40:10.691Z,103813.83
2019-02-24T13:42:55.648Z,103792.61
2019-02-24T13:45:39.675Z,103788.98
2019-02-24T13:48:24.365Z,103812.81
2019-02-24T13:51:08.617Z,103801.05
2019-02-24T13:53:53.362Z,103806.69
2019-02-24T13:56:39.026Z,103778.67
2019-02-24T13:59:24.008Z,103809.22
2019-02-24T14:02:10.388Z,103815.08
2019-02-24T14:04:55.408Z,103791.20
2019-02-24T14:07:39.768Z,103821.94
2019-02-24T14:10:24.684Z,103784.80
2019-02-24T14:13:09.150Z,103784.22
2019-02-24T14:15:52.890Z,103784.47
2019-02-24T14:18:37.181Z,103781.89
2019-02-24T14:21:22.756Z,103790.83
2019-02-24T14:24:07.234Z,103804.84
2019-02-24T14:26:51.345Z,103775.34
2019-02-24T14:29:35.297Z,103773.70
2019-02-24T14:32:19.575Z,103808.01
2019-02-24T14:35:03.910Z,103778.41
2019-02-24T14:37:47.931Z,103776.95
2019-02-24T14:40:20.120Z,103803.16
2019-02-24T14:43:06.276Z,103780.31
2019-02-24T14:45:50.108Z,103791.88
2019-02-24T14:48:34.487Z,103791.95
2019-02-24T14:51:19.534Z,103799.51
2019-02-24T14:53:51.794Z,103827.52
2019-02-24T14:56:37.579Z,103797.06
2019-02-24T14:59:22.880Z,103796.99
2019-02-24T15:02:07.395Z,103797.09
2019-02-24T15:04:52.487Z,103827.49
2019-02-24T15:11:44.242Z,103828.89
2019-02-24T15:14:29.502Z,103826.95
2019-02-24T15:17:13.857Z,103824.25
2019-02-24T15:19:58.068Z,103833.37
2019-02-24T15:22:43.244Z,103834.96
2019-02-24T15:25:28.789Z,103836.70
2019-02-24T15:28:13.738Z,103838.52
2019-02-24T15:30:58.870Z,103835.83
2019-02-24T15:33:44.003Z,103832.78
2019-02-24T15:36:28.653Z,103801.15
2019-02-24T15:39:12.928Z,103797.52
2019-02-24T15:41:57.332Z,103828.93
2019-02-24T15:44:42.059Z,103832.81
2019-02-24T15:47:27.515Z,103809.13
2019-02-24T15:50:11.837Z,103797.50
2019-02-24T15:52:44.781Z,103821.16
2019-02-24T15:55:29.061Z,103823.91
2019-02-24T16:01:23.750Z,103797.98
2019-02-24T16:04:14.405Z,103826.16
2019-02-24T16:07:02.654Z,103800.73
2019-02-24T16:09:49.517Z,103822.95
2019-02-24T16:12:33.697Z,103797.32
2019-02-24T16:15:19.160Z,103827.88
2019-02-24T16:18:03.588Z,103827.06
2019-02-24T16:20:48.290Z,103827.62
2019-02-24T16:23:32.841Z,103820.48
2019-02-24T16:26:19.543Z,103821.84
2019-02-24T16:29:03.987Z,103799.18
2019-02-24T16:31:48.635Z,103792.38
2019-02-24T16:34:22.512Z,103814.39
2019-02-24T16:37:06.670Z,103810.34
2019-02-24T16:39:50.917Z,103797.66
2019-02-24T16:42:36.100Z,103788.88
2019-02-24T16:45:20.209Z,103787.56
2019-02-24T16:48:04.955Z,103792.98
2019-02-24T16:50:38.314Z,103807.88
2019-02-24T16:53:25.190Z,103787.66
2019-02-24T16:56:12.654Z,103790.77
2019-02-24T16:59:04.596Z,103820.19
2019-02-24T17:01:49.318Z,103798.94
2019-02-24T17:04:36.521Z,103800.16
2019-02-24T17:07:21.250Z,103802.58
2019-02-24T17:10:05.689Z,103833.00
2019-02-24T17:12:50.686Z,103808.45
2019-02-24T17:15:37.549Z,103843.57
2019-02-24T17:18:22.123Z,103844.34
2019-02-24T17:21:06.761Z,103821.27
2019-02-24T17:23:52.501Z,103850.23
2019-02-24T17:26:38.087Z,103855.77
2019-02-24T17:29:26.556Z,103855.12
2019-02-24T17:31:58.927Z,103852.14
2019-02-24T17:34:44.071Z,103834.50
2019-02-24T17:37:29.835Z,103837.22
2019-02-24T17:40:03.017Z,103868.85
2019-02-24T17:42:47.111Z,103848.80
2019-02-24T17:45:30.761Z,103838.85
2019-02-24T17:48:14.672Z,103866.36
2019-02-24T17:50:59.750Z,103867.10
2019-02-24T17:53:44.362Z,103872.77
2019-02-24T17:56:29.339Z,103881.75
2019-02-24T17:59:13.735Z,103881.66
2019-02-24T18:01:57.702Z,103857.59
2019-02-24T18:04:41.732Z,103860.30
2019-02-24T18:07:26.177Z,103852.63
2019-02-24T18:10:11.958Z,103874.77
2019-02-24T18:12:56.130Z,103850.45
2019-02-24T18:15:40.124Z,103854.03
2019-02-24T18:18:24.397Z,103870.25
2019-02-24T18:21:11.131Z,103880.87
2019-02-24T18:23:55.055Z,103885.25
2019-02-24T18:26:39.167Z,103879.80
2019-02-24T18:32:29.441Z,103878.09
2019-02-24T18:35:13.294Z,103853.34
2019-02-24T18:37:58.422Z,103882.19
2019-02-24T18:40:44.364Z,103882.37
2019-02-24T18:43:30.305Z,103864.83
2019-02-24T18:46:14.261Z,103887.58
2019-02-24T18:48:57.966Z,103862.83
2019-02-24T18:51:48.415Z,103890.87
2019-02-24T18:54:34.960Z,103876.38
2019-02-24T18:57:20.798Z,103897.81
2019-02-24T19:00:05.685Z,103880.11
2019-02-24T19:02:50.778Z,103895.68
2019-02-24T19:05:35.491Z,103877.64
2019-02-24T19:08:21.194Z,103890.39
2019-02-24T19:11:05.275Z,103917.02
2019-02-24T19:13:50.330Z,103914.66
2019-02-24T19:16:34.206Z,103903.97
2019-02-24T19:19:25.350Z,103890.42
2019-02-24T19:22:07.306Z,103887.81
2019-02-24T19:25:01.280Z,103917.94
2019-02-24T19:27:45.280Z,103915.02
2019-02-24T19:30:29.522Z,103893.97
2019-02-24T19:33:14.834Z,103892.48
2019-02-24T19:35:58.917Z,103919.09
2019-02-24T19:38:43.548Z,103924.91
2019-02-24T19:41:27.617Z,103917.66
2019-02-24T19:44:11.448Z,103923.70
2019-02-24T19:46:56.249Z,103920.20
2019-02-24T19:49:40.077Z,103889.50
2019-02-24T19:52:24.529Z,103895.84
2019-02-24T19:55:08.647Z,103896.03
2019-02-24T19:57:54.199Z,103925.02
2019-02-24T20:00:40.356Z,103904.09
2019-02-24T20:03:28.722Z,103893.52
2019-02-24T20:06:13.219Z,103929.34
2019-02-24T20:08:58.654Z,103929.52
2019-02-24T20:11:43.786Z,103927.00
2019-02-24T20:14:27.899Z,103900.05
2019-02-24T20:17:12.527Z,103922.93
2019-02-24T20:19:56.814Z,103927.89
2019-02-24T20:22:42.757Z,103927.24
2019-02-24T20:25:15.081Z,103933.66
2019-02-24T20:27:58.900Z,103900.70
2019-02-24T20:30:43.067Z,103925.19
2019-02-24T20:33:26.688Z,103935.75
2019-02-24T20:36:10.740Z,103904.91
2019-02-24T20:38:54.984Z,103933.55
2019-02-24T20:41:39.065Z,103931.22
2019-02-24T20:44:23.584Z,103906.09
2019-02-24T20:47:09.437Z,103911.76
2019-02-24T20:49:42.089Z,103934.08
2019-02-24T20:52:26.928Z,103922.31
2019-02-24T20:55:10.751Z,103926.15
2019-02-24T20:57:55.677Z,103899.55
2019-02-24T21:00:42.245Z,103897.42
2019-02-24T21:03:25.818Z,103926.46
2019-02-24T21:06:11.148Z,103906.91
2019-02-24T21:08:43.371Z,103938.66
2019-02-24T21:11:15.632Z,103944.17
2019-02-24T21:14:01.395Z,103934.95
2019-02-24T21:16:46.640Z,103949.25
2019-02-24T21:19:30.888Z,103950.48
2019-02-24T21:22:15.320Z,103915.46
2019-02-24T21:25:00.285Z,103941.55
2019-02-24T21:27:32.648Z,103940.33
2019-02-24T21:30:18.141Z,103940.70
2019-02-24T21:33:03.084Z,103949.75
2019-02-24T21:35:51.492Z,103944.41
2019-02-24T21:38:36.235Z,103919.65
2019-02-24T21:41:21.562Z,103943.99
2019-02-24T21:44:06.278Z,103917.87
2019-02-24T21:46:50.445Z,103910.27
2019-02-24T21:49:22.723Z,103935.50
2019-02-24T21:52:06.765Z,103933.09
2019-02-24T21:54:52.264Z,103931.92
2019-02-24T21:57:35.769Z,103930.28
2019-02-24T22:00:20.234Z,103935.23
2019-02-24T22:03:04.500Z,103924.96
2019-02-24T22:05:52.190Z,103927.00
2019-02-24T22:08:24.412Z,103923.07
2019-02-24T22:11:09.215Z,103925.07
2019-02-24T22:13:54.455Z,103917.67
2019-02-24T22:16:38.758Z,103892.23
2019-02-24T22:19:12.133Z,103925.72
2019-02-24T22:21:57.153Z,103908.32
2019-02-24T22:24:40.989Z,103899.68
2019-02-24T22:27:13.388Z,103927.86
2019-02-24T22:29:57.840Z,103928.42
2019-02-24T22:32:44.261Z,103894.24
2019-02-24T22:35:30.623Z,103924.03
2019-02-24T22:38:16.962Z,103894.09
2019-02-24T22:41:00.437Z,103916.30
2019-02-24T22:43:45.970Z,103890.14
2019-02-24T22:46:30.112Z,103917.28
2019-02-24T22:49:13.848Z,103879.67
2019-02-24T22:51:58.270Z,103872.81
2019-02-24T22:54:43.302Z,103893.38
2019-02-24T22:57:31.860Z,103897.34
2019-02-24T23:00:20.583Z,103873.73
2019-02-24T23:03:12.527Z,103890.30
2019-02-24T23:05:56.921Z,103889.56
2019-02-24T23:08:40.934Z,103894.39
2019-02-24T23:11:25.491Z,103868.02
2019-02-24T23:13:58.493Z,103884.05
2019-02-24T23:16:43.144Z,103882.42
2019-02-24T23:19:27.073Z,103882.68
2019-02-24T23:22:12.180Z,103868.48
2019-02-24T23:24:56.165Z,103857.41
2019-02-24T23:27:40.084Z,103864.97
2019-02-24T23:30:23.828Z,103855.98
2019-02-24T23:33:08.123Z,103855.47
2019-02-24T23:35:52.285Z,103881.22
2019-02-24T23:38:36.919Z,103879.08
2019-02-24T23:41:20.856Z,103860.15
2019-02-24T23:43:53.180Z,103894.55
2019-02-24T23:46:37.411Z,103872.08
2019-02-24T23:49:21.642Z,103877.55
2019-02-24T23:52:05.816Z,103895.25
2019-02-24T23:54:50.228Z,103898.14
2019-02-24T23:57:34.199Z,103865.25
